sensor_id;sensor_type;location;lat;lon;timestamp;temperature;humidity
73137;DHT22;62977;45.636;11.750;2022-10-16T00:02:20;19.70;75.80
73137;DHT22;62977;45.636;11.750;2022-10-16T00:04:45;19.70;75.90
73137;DHT22;62977;45.636;11.750;2022-10-16T00:07:11;19.60;76.00
73137;DHT22;62977;45.636;11.750;2022-10-16T00:09:37;19.50;76.40
73137;DHT22;62977;45.636;11.750;2022-10-16T00:12:03;19.50;76.30
73137;DHT22;62977;45.636;11.750;2022-10-16T00:14:30;19.60;76.20
73137;DHT22;62977;45.636;11.750;2022-10-16T00:16:55;19.70;75.80
73137;DHT22;62977;45.636;11.750;2022-10-16T00:19:21;19.70;75.90
73137;DHT22;62977;45.636;11.750;2022-10-16T00:21:46;19.70;76.20
73137;DHT22;62977;45.636;11.750;2022-10-16T00:24:12;19.70;76.20
73137;DHT22;62977;45.636;11.750;2022-10-16T00:26:39;19.80;76.10
73137;DHT22;62977;45.636;11.750;2022-10-16T00:29:05;19.70;75.70
73137;DHT22;62977;45.636;11.750;2022-10-16T00:31:31;19.70;76.10
73137;DHT22;62977;45.636;11.750;2022-10-16T00:33:57;19.70;76.20
73137;DHT22;62977;45.636;11.750;2022-10-16T00:36:24;19.70;75.90
73137;DHT22;62977;45.636;11.750;2022-10-16T00:38:52;19.80;76.10
73137;DHT22;62977;45.636;11.750;2022-10-16T00:41:21;19.60;75.90
73137;DHT22;62977;45.636;11.750;2022-10-16T00:43:52;19.70;76.20
73137;DHT22;62977;45.636;11.750;2022-10-16T00:46:23;19.60;76.40
73137;DHT22;62977;45.636;11.750;2022-10-16T00:49:12;19.50;76.40
73137;DHT22;62977;45.636;11.750;2022-10-16T00:51:50;19.50;76.50
73137;DHT22;62977;45.636;11.750;2022-10-16T00:54:21;19.60;76.50
73137;DHT22;62977;45.636;11.750;2022-10-16T00:56:49;19.60;76.50
73137;DHT22;62977;45.636;11.750;2022-10-16T00:59:25;19.60;76.40
73137;DHT22;62977;45.636;11.750;2022-10-16T01:01:52;19.60;76.40
73137;DHT22;62977;45.636;11.750;2022-10-16T01:04:18;19.50;76.80
73137;DHT22;62977;45.636;11.750;2022-10-16T01:07:06;19.50;76.90
73137;DHT22;62977;45.636;11.750;2022-10-16T01:14:43;19.50;76.70
73137;DHT22;62977;45.636;11.750;2022-10-16T01:17:31;19.40;76.80
73137;DHT22;62977;45.636;11.750;2022-10-16T01:20:10;19.40;76.80
73137;DHT22;62977;45.636;11.750;2022-10-16T01:22:50;19.40;76.80
73137;DHT22;62977;45.636;11.750;2022-10-16T01:26:03;19.40;76.70
73137;DHT22;62977;45.636;11.750;2022-10-16T01:28:38;19.30;76.90
73137;DHT22;62977;45.636;11.750;2022-10-16T01:31:06;19.20;77.00
73137;DHT22;62977;45.636;11.750;2022-10-16T01:33:56;19.20;77.10
73137;DHT22;62977;45.636;11.750;2022-10-16T01:36:35;19.10;77.10
73137;DHT22;62977;45.636;11.750;2022-10-16T01:39:02;19.10;77.20
73137;DHT22;62977;45.636;11.750;2022-10-16T01:41:33;19.10;77.20
73137;DHT22;62977;45.636;11.750;2022-10-16T01:44:04;19.00;77.30
73137;DHT22;62977;45.636;11.750;2022-10-16T01:46:32;19.00;77.50
73137;DHT22;62977;45.636;11.750;2022-10-16T01:49:00;19.00;77.60
73137;DHT22;62977;45.636;11.750;2022-10-16T01:51:28;18.90;77.60
73137;DHT22;62977;45.636;11.750;2022-10-16T01:53:57;18.80;77.60
73137;DHT22;62977;45.636;11.750;2022-10-16T01:56:25;18.80;77.70
73137;DHT22;62977;45.636;11.750;2022-10-16T01:59:15;18.80;77.90
73137;DHT22;62977;45.636;11.750;2022-10-16T02:01:45;18.80;78.00
73137;DHT22;62977;45.636;11.750;2022-10-16T02:04:33;18.70;78.10
73137;DHT22;62977;45.636;11.750;2022-10-16T02:06:59;18.80;77.80
73137;DHT22;62977;45.636;11.750;2022-10-16T02:09:25;18.90;77.70
73137;DHT22;62977;45.636;11.750;2022-10-16T02:11:54;18.80;77.80
73137;DHT22;62977;45.636;11.750;2022-10-16T02:14:21;18.80;77.80
73137;DHT22;62977;45.636;11.750;2022-10-16T02:16:50;18.70;77.80
73137;DHT22;62977;45.636;11.750;2022-10-16T02:19:17;18.80;77.70
73137;DHT22;62977;45.636;11.750;2022-10-16T02:21:59;18.80;77.70
73137;DHT22;62977;45.636;11.750;2022-10-16T02:25:30;18.70;77.90
73137;DHT22;62977;45.636;11.750;2022-10-16T02:28:07;18.80;78.00
73137;DHT22;62977;45.636;11.750;2022-10-16T02:30:40;18.80;77.60
73137;DHT22;62977;45.636;11.750;2022-10-16T02:33:08;18.80;77.50
73137;DHT22;62977;45.636;11.750;2022-10-16T02:35:36;18.80;77.60
73137;DHT22;62977;45.636;11.750;2022-10-16T02:38:02;19.00;77.50
73137;DHT22;62977;45.636;11.750;2022-10-16T02:40:28;18.90;77.40
73137;DHT22;62977;45.636;11.750;2022-10-16T02:42:55;19.00;77.30
73137;DHT22;62977;45.636;11.750;2022-10-16T02:45:21;18.90;77.40
73137;DHT22;62977;45.636;11.750;2022-10-16T02:47:47;18.80;77.50
73137;DHT22;62977;45.636;11.750;2022-10-16T02:50:13;18.90;77.50
73137;DHT22;62977;45.636;11.750;2022-10-16T02:52:39;19.00;77.40
73137;DHT22;62977;45.636;11.750;2022-10-16T02:55:05;18.90;77.40
73137;DHT22;62977;45.636;11.750;2022-10-16T02:57:31;18.90;77.60
73137;DHT22;62977;45.636;11.750;2022-10-16T02:59:57;18.80;77.70
73137;DHT22;62977;45.636;11.750;2022-10-16T03:02:23;18.80;77.80
73137;DHT22;62977;45.636;11.750;2022-10-16T03:04:48;18.80;77.70
73137;DHT22;62977;45.636;11.750;2022-10-16T03:07:14;18.90;77.50
73137;DHT22;62977;45.636;11.750;2022-10-16T03:09:40;18.90;77.50
73137;DHT22;62977;45.636;11.750;2022-10-16T03:12:06;18.90;77.60
73137;DHT22;62977;45.636;11.750;2022-10-16T03:14:32;18.90;77.60
73137;DHT22;62977;45.636;11.750;2022-10-16T03:16:58;18.80;77.80
73137;DHT22;62977;45.636;11.750;2022-10-16T03:19:23;18.80;77.60
73137;DHT22;62977;45.636;11.750;2022-10-16T03:21:49;18.80;77.60
73137;DHT22;62977;45.636;11.750;2022-10-16T03:24:14;18.80;77.80
73137;DHT22;62977;45.636;11.750;2022-10-16T03:26:40;18.80;77.50
73137;DHT22;62977;45.636;11.750;2022-10-16T03:29:06;18.80;77.50
73137;DHT22;62977;45.636;11.750;2022-10-16T03:31:32;18.70;77.60
73137;DHT22;62977;45.636;11.750;2022-10-16T03:33:57;18.70;77.60
73137;DHT22;62977;45.636;11.750;2022-10-16T03:36:23;18.80;77.70
73137;DHT22;62977;45.636;11.750;2022-10-16T03:38:49;18.70;77.70
73137;DHT22;62977;45.636;11.750;2022-10-16T03:41:15;18.70;77.60
73137;DHT22;62977;45.636;11.750;2022-10-16T03:43:40;18.70;77.60
73137;DHT22;62977;45.636;11.750;2022-10-16T03:46:06;18.70;77.70
73137;DHT22;62977;45.636;11.750;2022-10-16T03:48:32;18.70;77.70
73137;DHT22;62977;45.636;11.750;2022-10-16T03:50:58;18.70;77.80
73137;DHT22;62977;45.636;11.750;2022-10-16T03:53:23;18.60;77.70
73137;DHT22;62977;45.636;11.750;2022-10-16T03:55:49;18.50;77.80
73137;DHT22;62977;45.636;11.750;2022-10-16T03:58:15;18.60;77.80
73137;DHT22;62977;45.636;11.750;2022-10-16T04:00:45;18.50;77.70
73137;DHT22;62977;45.636;11.750;2022-10-16T04:03:12;18.50;77.80
73137;DHT22;62977;45.636;11.750;2022-10-16T04:05:38;18.40;78.00
73137;DHT22;62977;45.636;11.750;2022-10-16T04:08:04;18.40;77.70
73137;DHT22;62977;45.636;11.750;2022-10-16T04:10:29;18.30;77.50
73137;DHT22;62977;45.636;11.750;2022-10-16T04:12:55;18.40;77.40
73137;DHT22;62977;45.636;11.750;2022-10-16T04:15:22;18.30;77.30
73137;DHT22;62977;45.636;11.750;2022-10-16T04:17:48;18.30;77.40
73137;DHT22;62977;45.636;11.750;2022-10-16T04:20:14;18.30;77.30
73137;DHT22;62977;45.636;11.750;2022-10-16T04:22:40;18.30;77.30
73137;DHT22;62977;45.636;11.750;2022-10-16T04:25:06;18.20;77.40
73137;DHT22;62977;45.636;11.750;2022-10-16T04:27:32;18.20;77.40
73137;DHT22;62977;45.636;11.750;2022-10-16T04:29:59;18.20;77.60
73137;DHT22;62977;45.636;11.750;2022-10-16T04:32:25;18.20;77.60
73137;DHT22;62977;45.636;11.750;2022-10-16T04:34:50;18.20;77.50
73137;DHT22;62977;45.636;11.750;2022-10-16T04:37:16;18.10;79.00
73137;DHT22;62977;45.636;11.750;2022-10-16T04:39:42;18.00;79.00
73137;DHT22;62977;45.636;11.750;2022-10-16T04:42:07;18.00;79.10
73137;DHT22;62977;45.636;11.750;2022-10-16T04:44:33;18.00;79.10
73137;DHT22;62977;45.636;11.750;2022-10-16T04:46:59;17.90;79.20
73137;DHT22;62977;45.636;11.750;2022-10-16T04:49:24;18.00;79.20
73137;DHT22;62977;45.636;11.750;2022-10-16T04:51:50;18.00;79.00
73137;DHT22;62977;45.636;11.750;2022-10-16T04:54:16;18.00;79.20
73137;DHT22;62977;45.636;11.750;2022-10-16T04:56:41;17.80;79.50
73137;DHT22;62977;45.636;11.750;2022-10-16T04:59:16;17.80;79.80
73137;DHT22;62977;45.636;11.750;2022-10-16T05:01:42;17.70;80.00
73137;DHT22;62977;45.636;11.750;2022-10-16T05:04:08;17.70;79.80
73137;DHT22;62977;45.636;11.750;2022-10-16T05:06:34;17.60;80.00
73137;DHT22;62977;45.636;11.750;2022-10-16T05:09:00;17.60;80.10
73137;DHT22;62977;45.636;11.750;2022-10-16T05:11:25;17.60;80.20
73137;DHT22;62977;45.636;11.750;2022-10-16T05:13:51;17.50;80.30
73137;DHT22;62977;45.636;11.750;2022-10-16T05:16:16;17.50;80.10
73137;DHT22;62977;45.636;11.750;2022-10-16T05:18:42;17.60;80.40
73137;DHT22;62977;45.636;11.750;2022-10-16T05:21:08;17.40;80.50
73137;DHT22;62977;45.636;11.750;2022-10-16T05:23:34;17.50;80.20
73137;DHT22;62977;45.636;11.750;2022-10-16T05:26:00;17.40;80.40
73137;DHT22;62977;45.636;11.750;2022-10-16T05:28:29;17.40;80.50
73137;DHT22;62977;45.636;11.750;2022-10-16T05:30:56;17.40;80.40
73137;DHT22;62977;45.636;11.750;2022-10-16T05:33:23;17.40;80.50
73137;DHT22;62977;45.636;11.750;2022-10-16T05:35:49;17.20;80.30
73137;DHT22;62977;45.636;11.750;2022-10-16T05:38:16;17.40;80.20
73137;DHT22;62977;45.636;11.750;2022-10-16T05:40:42;17.30;80.40
73137;DHT22;62977;45.636;11.750;2022-10-16T05:43:08;17.40;80.30
73137;DHT22;62977;45.636;11.750;2022-10-16T05:45:34;17.40;80.50
73137;DHT22;62977;45.636;11.750;2022-10-16T05:48:00;17.30;80.50
73137;DHT22;62977;45.636;11.750;2022-10-16T05:50:27;17.20;80.30
73137;DHT22;62977;45.636;11.750;2022-10-16T05:52:53;17.10;80.60
73137;DHT22;62977;45.636;11.750;2022-10-16T05:55:19;17.00;80.60
73137;DHT22;62977;45.636;11.750;2022-10-16T05:57:44;17.00;80.70
73137;DHT22;62977;45.636;11.750;2022-10-16T06:00:10;17.10;80.70
73137;DHT22;62977;45.636;11.750;2022-10-16T06:02:36;17.10;80.50
73137;DHT22;62977;45.636;11.750;2022-10-16T06:05:02;17.00;80.70
73137;DHT22;62977;45.636;11.750;2022-10-16T06:07:28;17.00;80.60
73137;DHT22;62977;45.636;11.750;2022-10-16T06:09:53;17.10;80.60
73137;DHT22;62977;45.636;11.750;2022-10-16T06:12:20;17.10;80.80
73137;DHT22;62977;45.636;11.750;2022-10-16T06:14:46;17.00;80.80
73137;DHT22;62977;45.636;11.750;2022-10-16T06:17:15;17.10;80.90
73137;DHT22;62977;45.636;11.750;2022-10-16T06:19:41;17.00;81.00
73137;DHT22;62977;45.636;11.750;2022-10-16T06:22:07;17.10;80.90
73137;DHT22;62977;45.636;11.750;2022-10-16T06:24:32;17.00;80.70
73137;DHT22;62977;45.636;11.750;2022-10-16T06:26:58;17.10;80.70
73137;DHT22;62977;45.636;11.750;2022-10-16T06:29:23;17.10;80.60
73137;DHT22;62977;45.636;11.750;2022-10-16T06:31:49;17.20;80.80
73137;DHT22;62977;45.636;11.750;2022-10-16T06:34:15;17.20;80.70
73137;DHT22;62977;45.636;11.750;2022-10-16T06:36:41;17.20;80.70
73137;DHT22;62977;45.636;11.750;2022-10-16T06:39:06;17.20;80.70
73137;DHT22;62977;45.636;11.750;2022-10-16T06:41:35;17.30;80.60
73137;DHT22;62977;45.636;11.750;2022-10-16T06:44:04;17.40;80.50
73137;DHT22;62977;45.636;11.750;2022-10-16T06:46:30;17.50;80.30
73137;DHT22;62977;45.636;11.750;2022-10-16T06:48:56;17.60;80.30
73137;DHT22;62977;45.636;11.750;2022-10-16T06:51:23;17.50;80.30
73137;DHT22;62977;45.636;11.750;2022-10-16T06:53:54;17.70;80.10
73137;DHT22;62977;45.636;11.750;2022-10-16T06:56:24;17.70;79.90
73137;DHT22;62977;45.636;11.750;2022-10-16T06:58:51;17.80;80.00
73137;DHT22;62977;45.636;11.750;2022-10-16T07:01:19;17.90;79.70
73137;DHT22;62977;45.636;11.750;2022-10-16T07:03:46;17.90;79.40
73137;DHT22;62977;45.636;11.750;2022-10-16T07:06:14;18.00;79.60
73137;DHT22;62977;45.636;11.750;2022-10-16T07:08:42;18.20;78.00
73137;DHT22;62977;45.636;11.750;2022-10-16T07:11:10;18.30;77.60
73137;DHT22;62977;45.636;11.750;2022-10-16T07:13:37;18.30;77.60
73137;DHT22;62977;45.636;11.750;2022-10-16T07:16:07;18.30;77.70
73137;DHT22;62977;45.636;11.750;2022-10-16T07:18:33;18.40;77.60
73137;DHT22;62977;45.636;11.750;2022-10-16T07:21:18;18.40;77.30
73137;DHT22;62977;45.636;11.750;2022-10-16T07:23:45;18.50;77.30
73137;DHT22;62977;45.636;11.750;2022-10-16T07:26:11;18.60;77.20
73137;DHT22;62977;45.636;11.750;2022-10-16T07:28:37;18.80;76.90
73137;DHT22;62977;45.636;11.750;2022-10-16T07:31:06;18.90;76.60
73137;DHT22;62977;45.636;11.750;2022-10-16T07:33:34;19.00;76.40
73137;DHT22;62977;45.636;11.750;2022-10-16T07:36:00;19.10;76.30
73137;DHT22;62977;45.636;11.750;2022-10-16T07:38:26;19.20;75.70
73137;DHT22;62977;45.636;11.750;2022-10-16T07:40:58;19.30;75.30
73137;DHT22;62977;45.636;11.750;2022-10-16T07:43:25;19.50;75.20
73137;DHT22;62977;45.636;11.750;2022-10-16T07:45:51;19.50;74.60
73137;DHT22;62977;45.636;11.750;2022-10-16T07:48:17;19.50;74.40
73137;DHT22;62977;45.636;11.750;2022-10-16T07:50:44;19.50;74.60
73137;DHT22;62977;45.636;11.750;2022-10-16T07:53:10;19.70;74.30
73137;DHT22;62977;45.636;11.750;2022-10-16T07:55:36;19.70;74.30
73137;DHT22;62977;45.636;11.750;2022-10-16T07:58:02;19.90;74.30
73137;DHT22;62977;45.636;11.750;2022-10-16T08:00:27;19.90;74.20
73137;DHT22;62977;45.636;11.750;2022-10-16T08:02:53;20.00;73.80
73137;DHT22;62977;45.636;11.750;2022-10-16T08:05:19;20.10;73.80
73137;DHT22;62977;45.636;11.750;2022-10-16T08:07:51;20.10;73.60
73137;DHT22;62977;45.636;11.750;2022-10-16T08:10:18;20.20;73.20
73137;DHT22;62977;45.636;11.750;2022-10-16T08:12:44;20.40;73.10
73137;DHT22;62977;45.636;11.750;2022-10-16T08:15:10;20.50;72.90
73137;DHT22;62977;45.636;11.750;2022-10-16T08:17:36;20.40;72.90
73137;DHT22;62977;45.636;11.750;2022-10-16T08:20:02;20.60;72.90
73137;DHT22;62977;45.636;11.750;2022-10-16T08:22:28;20.60;72.70
73137;DHT22;62977;45.636;11.750;2022-10-16T08:24:54;20.80;72.10
73137;DHT22;62977;45.636;11.750;2022-10-16T08:27:19;20.90;72.10
73137;DHT22;62977;45.636;11.750;2022-10-16T08:29:45;21.00;70.90
73137;DHT22;62977;45.636;11.750;2022-10-16T08:32:11;21.20;70.50
73137;DHT22;62977;45.636;11.750;2022-10-16T08:34:36;21.20;70.70
73137;DHT22;62977;45.636;11.750;2022-10-16T08:37:02;21.20;70.40
73137;DHT22;62977;45.636;11.750;2022-10-16T08:39:28;21.30;70.20
73137;DHT22;62977;45.636;11.750;2022-10-16T08:47:01;21.30;70.20
73137;DHT22;62977;45.636;11.750;2022-10-16T08:49:28;21.40;70.20
73137;DHT22;62977;45.636;11.750;2022-10-16T08:51:55;21.50;70.30
73137;DHT22;62977;45.636;11.750;2022-10-16T08:57:09;21.60;70.00
73137;DHT22;62977;45.636;11.750;2022-10-16T08:59:35;21.50;69.70
73137;DHT22;62977;45.636;11.750;2022-10-16T09:02:00;21.70;70.10
73137;DHT22;62977;45.636;11.750;2022-10-16T09:04:44;21.60;70.00
73137;DHT22;62977;45.636;11.750;2022-10-16T09:07:26;21.60;70.10
73137;DHT22;62977;45.636;11.750;2022-10-16T09:10:15;21.80;70.00
73137;DHT22;62977;45.636;11.750;2022-10-16T09:12:57;22.00;69.00
73137;DHT22;62977;45.636;11.750;2022-10-16T09:15:41;22.20;69.40
73137;DHT22;62977;45.636;11.750;2022-10-16T09:18:21;22.00;69.70
73137;DHT22;62977;45.636;11.750;2022-10-16T09:23:29;22.40;68.90
73137;DHT22;62977;45.636;11.750;2022-10-16T09:25:56;22.20;69.40
73137;DHT22;62977;45.636;11.750;2022-10-16T09:28:23;22.30;68.80
73137;DHT22;62977;45.636;11.750;2022-10-16T09:30:50;22.50;69.10
73137;DHT22;62977;45.636;11.750;2022-10-16T09:33:19;22.50;68.60
73137;DHT22;62977;45.636;11.750;2022-10-16T09:35:50;22.80;67.60
73137;DHT22;62977;45.636;11.750;2022-10-16T09:38:32;22.70;67.80
73137;DHT22;62977;45.636;11.750;2022-10-16T09:43:42;23.10;67.00
73137;DHT22;62977;45.636;11.750;2022-10-16T09:46:31;23.10;67.40
73137;DHT22;62977;45.636;11.750;2022-10-16T09:49:00;23.30;66.60
73137;DHT22;62977;45.636;11.750;2022-10-16T09:51:31;23.20;63.70
73137;DHT22;62977;45.636;11.750;2022-10-16T09:56:34;23.60;63.10
73137;DHT22;62977;45.636;11.750;2022-10-16T09:59:08;23.70;63.90
73137;DHT22;62977;45.636;11.750;2022-10-16T10:01:37;23.60;62.60
73137;DHT22;62977;45.636;11.750;2022-10-16T10:04:04;23.80;62.40
73137;DHT22;62977;45.636;11.750;2022-10-16T10:06:36;24.00;60.90
73137;DHT22;62977;45.636;11.750;2022-10-16T10:16:41;24.60;58.70
73137;DHT22;62977;45.636;11.750;2022-10-16T10:19:17;24.40;58.50
73137;DHT22;62977;45.636;11.750;2022-10-16T10:21:43;24.60;58.60
73137;DHT22;62977;45.636;11.750;2022-10-16T10:24:11;24.60;59.20
73137;DHT22;62977;45.636;11.750;2022-10-16T10:26:38;24.60;59.40
73137;DHT22;62977;45.636;11.750;2022-10-16T10:29:23;24.10;60.20
73137;DHT22;62977;45.636;11.750;2022-10-16T10:42:48;24.00;60.00
73137;DHT22;62977;45.636;11.750;2022-10-16T10:45:26;24.90;59.30
73137;DHT22;62977;45.636;11.750;2022-10-16T10:48:19;25.50;58.10
73137;DHT22;62977;45.636;11.750;2022-10-16T10:50:49;25.20;58.10
73137;DHT22;62977;45.636;11.750;2022-10-16T10:58:50;25.80;57.10
73137;DHT22;62977;45.636;11.750;2022-10-16T11:06:46;26.60;53.50
73137;DHT22;62977;45.636;11.750;2022-10-16T11:09:18;26.90;53.70
73137;DHT22;62977;45.636;11.750;2022-10-16T11:14:26;26.80;52.80
73137;DHT22;62977;45.636;11.750;2022-10-16T11:16:59;27.30;52.70
73137;DHT22;62977;45.636;11.750;2022-10-16T11:19:37;27.40;52.70
73137;DHT22;62977;45.636;11.750;2022-10-16T11:35:55;26.10;55.50
73137;DHT22;62977;45.636;11.750;2022-10-16T11:40:58;25.20;58.20
73137;DHT22;62977;45.636;11.750;2022-10-16T11:49:41;25.90;56.80
73137;DHT22;62977;45.636;11.750;2022-10-16T11:52:36;26.20;55.20
73137;DHT22;62977;45.636;11.750;2022-10-16T11:55:13;25.80;56.80
73137;DHT22;62977;45.636;11.750;2022-10-16T11:57:50;25.80;57.10
73137;DHT22;62977;45.636;11.750;2022-10-16T12:08:25;25.80;57.30
73137;DHT22;62977;45.636;11.750;2022-10-16T12:10:51;25.80;57.40
73137;DHT22;62977;45.636;11.750;2022-10-16T12:13:34;25.60;58.10
73137;DHT22;62977;45.636;11.750;2022-10-16T12:18:44;25.60;57.70
73137;DHT22;62977;45.636;11.750;2022-10-16T12:21:12;25.80;57.20
73137;DHT22;62977;45.636;11.750;2022-10-16T12:23:49;25.80;57.50
73137;DHT22;62977;45.636;11.750;2022-10-16T12:26:27;25.80;57.40
73137;DHT22;62977;45.636;11.750;2022-10-16T12:28:54;25.70;57.80
73137;DHT22;62977;45.636;11.750;2022-10-16T12:31:21;25.80;57.80
73137;DHT22;62977;45.636;11.750;2022-10-16T12:34:03;26.00;57.30
73137;DHT22;62977;45.636;11.750;2022-10-16T12:36:38;26.00;56.70
73137;DHT22;62977;45.636;11.750;2022-10-16T12:39:03;26.00;55.80
73137;DHT22;62977;45.636;11.750;2022-10-16T12:41:32;26.10;56.60
73137;DHT22;62977;45.636;11.750;2022-10-16T12:44:00;26.30;55.70
73137;DHT22;62977;45.636;11.750;2022-10-16T12:51:38;27.20;52.00
73137;DHT22;62977;45.636;11.750;2022-10-16T12:56:46;28.10;50.50
73137;DHT22;62977;45.636;11.750;2022-10-16T13:05:26;26.90;52.00
73137;DHT22;62977;45.636;11.750;2022-10-16T13:37:29;27.30;51.60
73137;DHT22;62977;45.636;11.750;2022-10-16T13:40:23;27.50;50.90
73137;DHT22;62977;45.636;11.750;2022-10-16T13:42:51;27.30;51.00
73137;DHT22;62977;45.636;11.750;2022-10-16T13:45:24;28.20;49.40
73137;DHT22;62977;45.636;11.750;2022-10-16T13:48:04;28.30;48.60
73137;DHT22;62977;45.636;11.750;2022-10-16T13:50:31;28.20;48.80
73137;DHT22;62977;45.636;11.750;2022-10-16T13:53:07;28.30;48.40
73137;DHT22;62977;45.636;11.750;2022-10-16T13:55:33;28.20;48.40
73137;DHT22;62977;45.636;11.750;2022-10-16T13:58:11;27.80;48.90
73137;DHT22;62977;45.636;11.750;2022-10-16T14:00:37;27.30;50.70
73137;DHT22;62977;45.636;11.750;2022-10-16T14:03:13;27.50;49.80
73137;DHT22;62977;45.636;11.750;2022-10-16T14:05:54;27.40;51.00
73137;DHT22;62977;45.636;11.750;2022-10-16T14:08:21;27.50;50.40
73137;DHT22;62977;45.636;11.750;2022-10-16T14:10:49;27.50;50.00
73137;DHT22;62977;45.636;11.750;2022-10-16T14:13:29;27.20;50.70
73137;DHT22;62977;45.636;11.750;2022-10-16T14:15:55;27.20;50.60
73137;DHT22;62977;45.636;11.750;2022-10-16T14:18:25;27.00;51.30
73137;DHT22;62977;45.636;11.750;2022-10-16T14:20:52;26.70;52.20
73137;DHT22;62977;45.636;11.750;2022-10-16T14:23:20;26.10;54.00
73137;DHT22;62977;45.636;11.750;2022-10-16T14:25:47;25.90;54.70
73137;DHT22;62977;45.636;11.750;2022-10-16T14:28:21;26.10;54.60
73137;DHT22;62977;45.636;11.750;2022-10-16T14:30:55;25.80;55.50
73137;DHT22;62977;45.636;11.750;2022-10-16T14:36:11;25.90;55.10
73137;DHT22;62977;45.636;11.750;2022-10-16T14:39:03;25.60;55.30
73137;DHT22;62977;45.636;11.750;2022-10-16T14:41:29;25.70;55.50
73137;DHT22;62977;45.636;11.750;2022-10-16T14:44:02;25.60;55.10
73137;DHT22;62977;45.636;11.750;2022-10-16T14:46:37;25.60;55.90
73137;DHT22;62977;45.636;11.750;2022-10-16T14:51:40;25.70;55.60
73137;DHT22;62977;45.636;11.750;2022-10-16T14:54:15;25.40;55.80
73137;DHT22;62977;45.636;11.750;2022-10-16T14:56:57;25.50;56.20
73137;DHT22;62977;45.636;11.750;2022-10-16T14:59:41;25.70;55.20
73137;DHT22;62977;45.636;11.750;2022-10-16T15:04:43;25.20;55.90
73137;DHT22;62977;45.636;11.750;2022-10-16T15:07:08;25.20;56.40
73137;DHT22;62977;45.636;11.750;2022-10-16T15:09:34;25.30;56.30
73137;DHT22;62977;45.636;11.750;2022-10-16T15:11:59;25.20;56.10
73137;DHT22;62977;45.636;11.750;2022-10-16T15:14:25;25.20;56.30
73137;DHT22;62977;45.636;11.750;2022-10-16T15:16:51;25.10;55.90
73137;DHT22;62977;45.636;11.750;2022-10-16T15:19:16;25.20;56.60
73137;DHT22;62977;45.636;11.750;2022-10-16T15:21:42;25.20;57.00
73137;DHT22;62977;45.636;11.750;2022-10-16T15:24:12;25.10;57.90
73137;DHT22;62977;45.636;11.750;2022-10-16T15:26:38;25.00;57.40
73137;DHT22;62977;45.636;11.750;2022-10-16T15:29:04;25.00;57.90
73137;DHT22;62977;45.636;11.750;2022-10-16T15:31:30;25.00;57.50
73137;DHT22;62977;45.636;11.750;2022-10-16T15:33:56;24.90;57.10
73137;DHT22;62977;45.636;11.750;2022-10-16T15:36:37;24.80;57.60
73137;DHT22;62977;45.636;11.750;2022-10-16T15:39:16;24.70;57.30
73137;DHT22;62977;45.636;11.750;2022-10-16T15:41:44;24.80;57.80
73137;DHT22;62977;45.636;11.750;2022-10-16T15:44:16;24.60;57.50
73137;DHT22;62977;45.636;11.750;2022-10-16T15:46:42;24.50;58.50
73137;DHT22;62977;45.636;11.750;2022-10-16T15:49:09;24.60;58.40
73137;DHT22;62977;45.636;11.750;2022-10-16T15:51:38;24.40;59.70
73137;DHT22;62977;45.636;11.750;2022-10-16T15:54:04;24.40;59.60
73137;DHT22;62977;45.636;11.750;2022-10-16T15:56:29;24.20;60.80
73137;DHT22;62977;45.636;11.750;2022-10-16T15:58:59;24.20;61.10
73137;DHT22;62977;45.636;11.750;2022-10-16T16:01:25;24.00;62.00
73137;DHT22;62977;45.636;11.750;2022-10-16T16:03:54;23.90;62.60
73137;DHT22;62977;45.636;11.750;2022-10-16T16:06:20;23.80;63.20
73137;DHT22;62977;45.636;11.750;2022-10-16T16:08:46;23.70;63.20
73137;DHT22;62977;45.636;11.750;2022-10-16T16:11:14;23.70;64.10
73137;DHT22;62977;45.636;11.750;2022-10-16T16:13:40;23.40;66.90
73137;DHT22;62977;45.636;11.750;2022-10-16T16:16:11;23.30;67.80
73137;DHT22;62977;45.636;11.750;2022-10-16T16:18:37;23.20;67.60
73137;DHT22;62977;45.636;11.750;2022-10-16T16:21:04;23.20;67.40
73137;DHT22;62977;45.636;11.750;2022-10-16T16:23:30;23.10;67.90
73137;DHT22;62977;45.636;11.750;2022-10-16T16:26:09;23.10;68.30
73137;DHT22;62977;45.636;11.750;2022-10-16T16:28:36;23.00;68.70
73137;DHT22;62977;45.636;11.750;2022-10-16T16:31:04;22.80;69.70
73137;DHT22;62977;45.636;11.750;2022-10-16T16:33:32;22.70;69.60
73137;DHT22;62977;45.636;11.750;2022-10-16T16:36:00;22.80;69.90
73137;DHT22;62977;45.636;11.750;2022-10-16T16:38:28;22.80;70.20
73137;DHT22;62977;45.636;11.750;2022-10-16T16:40:55;22.50;70.50
73137;DHT22;62977;45.636;11.750;2022-10-16T16:43:25;22.50;70.50
73137;DHT22;62977;45.636;11.750;2022-10-16T16:45:52;22.30;70.40
73137;DHT22;62977;45.636;11.750;2022-10-16T16:48:18;22.40;70.10
73137;DHT22;62977;45.636;11.750;2022-10-16T16:50:44;22.30;70.70
73137;DHT22;62977;45.636;11.750;2022-10-16T16:53:09;22.10;71.00
73137;DHT22;62977;45.636;11.750;2022-10-16T16:55:35;21.90;71.20
73137;DHT22;62977;45.636;11.750;2022-10-16T16:58:01;21.90;71.40
73137;DHT22;62977;45.636;11.750;2022-10-16T17:00:28;21.80;71.60
73137;DHT22;62977;45.636;11.750;2022-10-16T17:02:54;21.70;71.60
73137;DHT22;62977;45.636;11.750;2022-10-16T17:05:19;21.60;71.60
73137;DHT22;62977;45.636;11.750;2022-10-16T17:07:45;21.50;71.90
73137;DHT22;62977;45.636;11.750;2022-10-16T17:10:10;21.50;71.90
73137;DHT22;62977;45.636;11.750;2022-10-16T17:12:36;21.50;71.80
73137;DHT22;62977;45.636;11.750;2022-10-16T17:15:02;21.40;71.80
73137;DHT22;62977;45.636;11.750;2022-10-16T17:17:28;21.40;72.00
73137;DHT22;62977;45.636;11.750;2022-10-16T17:19:54;21.30;72.00
73137;DHT22;62977;45.636;11.750;2022-10-16T17:22:19;21.50;72.20
73137;DHT22;62977;45.636;11.750;2022-10-16T17:24:48;21.40;71.80
73137;DHT22;62977;45.636;11.750;2022-10-16T17:27:15;21.40;72.10
73137;DHT22;62977;45.636;11.750;2022-10-16T17:29:41;21.40;72.10
73137;DHT22;62977;45.636;11.750;2022-10-16T17:32:06;21.30;72.20
73137;DHT22;62977;45.636;11.750;2022-10-16T17:34:32;21.10;72.30
73137;DHT22;62977;45.636;11.750;2022-10-16T17:37:00;21.10;72.30
73137;DHT22;62977;45.636;11.750;2022-10-16T17:39:25;21.00;72.50
73137;DHT22;62977;45.636;11.750;2022-10-16T17:41:51;20.90;72.80
73137;DHT22;62977;45.636;11.750;2022-10-16T17:44:17;20.80;74.20
73137;DHT22;62977;45.636;11.750;2022-10-16T17:46:50;20.80;74.10